sensor_id;sensor_type;location;lat;lon;timestamp;temperature;humidity
40291;DHT22;26000;48.304;13.626;2022-11-12T00:00:01;5.60;99.90
40291;DHT22;26000;48.304;13.626;2022-11-12T00:02:26;5.60;99.90
40291;DHT22;26000;48.304;13.626;2022-11-12T00:04:52;5.60;99.90
40291;DHT22;26000;48.304;13.626;2022-11-12T00:07:18;5.60;99.90
40291;DHT22;26000;48.304;13.626;2022-11-12T00:09:43;5.60;99.90
40291;DHT22;26000;48.304;13.626;2022-11-12T00:12:09;5.60;99.90
40291;DHT22;26000;48.304;13.626;2022-11-12T00:14:34;5.70;99.90
40291;DHT22;26000;48.304;13.626;2022-11-12T00:17:00;5.70;99.90
40291;DHT22;26000;48.304;13.626;2022-11-12T00:19:26;5.80;99.90
40291;DHT22;26000;48.304;13.626;2022-11-12T00:21:51;5.70;99.90
40291;DHT22;26000;48.304;13.626;2022-11-12T00:24:17;5.70;99.90
40291;DHT22;26000;48.304;13.626;2022-11-12T00:26:42;5.80;99.90
40291;DHT22;26000;48.304;13.626;2022-11-12T00:29:08;5.80;99.90
40291;DHT22;26000;48.304;13.626;2022-11-12T00:31:34;5.80;99.90
40291;DHT22;26000;48.304;13.626;2022-11-12T00:33:59;5.80;99.90
40291;DHT22;26000;48.304;13.626;2022-11-12T00:36:25;5.80;99.90
40291;DHT22;26000;48.304;13.626;2022-11-12T00:38:51;5.90;99.90
40291;DHT22;26000;48.304;13.626;2022-11-12T00:41:16;5.80;99.90
40291;DHT22;26000;48.304;13.626;2022-11-12T00:43:42;5.80;99.90
40291;DHT22;26000;48.304;13.626;2022-11-12T00:46:08;5.80;99.90
40291;DHT22;26000;48.304;13.626;2022-11-12T00:48:33;5.80;99.90
40291;DHT22;26000;48.304;13.626;2022-11-12T00:51:04;5.70;99.90
40291;DHT22;26000;48.304;13.626;2022-11-12T00:53:30;5.70;99.90
40291;DHT22;26000;48.304;13.626;2022-11-12T00:56:03;5.60;99.90
40291;DHT22;26000;48.304;13.626;2022-11-12T00:58:31;5.60;99.90
40291;DHT22;26000;48.304;13.626;2022-11-12T01:00:57;5.70;99.90
40291;DHT22;26000;48.304;13.626;2022-11-12T01:03:28;5.60;99.90
40291;DHT22;26000;48.304;13.626;2022-11-12T01:05:54;5.50;99.90
40291;DHT22;26000;48.304;13.626;2022-11-12T01:08:19;5.50;99.90
40291;DHT22;26000;48.304;13.626;2022-11-12T01:10:45;5.50;99.90
40291;DHT22;26000;48.304;13.626;2022-11-12T01:13:10;5.50;99.90
40291;DHT22;26000;48.304;13.626;2022-11-12T01:15:40;5.50;99.90
40291;DHT22;26000;48.304;13.626;2022-11-12T01:18:06;5.50;99.90
40291;DHT22;26000;48.304;13.626;2022-11-12T01:20:31;5.40;99.90
40291;DHT22;26000;48.304;13.626;2022-11-12T01:22:57;5.40;99.90
40291;DHT22;26000;48.304;13.626;2022-11-12T01:25:23;5.40;99.90
40291;DHT22;26000;48.304;13.626;2022-11-12T01:27:48;5.30;99.90
40291;DHT22;26000;48.304;13.626;2022-11-12T01:30:14;5.20;99.90
40291;DHT22;26000;48.304;13.626;2022-11-12T01:32:39;5.20;99.90
40291;DHT22;26000;48.304;13.626;2022-11-12T01:35:05;5.20;99.90
40291;DHT22;26000;48.304;13.626;2022-11-12T01:37:31;5.20;99.90
40291;DHT22;26000;48.304;13.626;2022-11-12T01:39:56;5.20;99.90
40291;DHT22;26000;48.304;13.626;2022-11-12T01:42:24;5.30;99.90
40291;DHT22;26000;48.304;13.626;2022-11-12T01:44:51;5.40;99.90
40291;DHT22;26000;48.304;13.626;2022-11-12T01:47:28;5.20;99.90
40291;DHT22;26000;48.304;13.626;2022-11-12T01:50:00;5.30;99.90
40291;DHT22;26000;48.304;13.626;2022-11-12T01:52:42;5.30;99.90
40291;DHT22;26000;48.304;13.626;2022-11-12T01:55:13;5.30;99.90
40291;DHT22;26000;48.304;13.626;2022-11-12T01:57:51;5.30;99.90
40291;DHT22;26000;48.304;13.626;2022-11-12T02:00:18;5.20;99.90
40291;DHT22;26000;48.304;13.626;2022-11-12T02:02:52;5.20;99.90
40291;DHT22;26000;48.304;13.626;2022-11-12T02:05:20;5.20;99.90
40291;DHT22;26000;48.304;13.626;2022-11-12T02:07:47;5.20;99.90
40291;DHT22;26000;48.304;13.626;2022-11-12T02:10:14;5.10;99.90
40291;DHT22;26000;48.304;13.626;2022-11-12T02:12:40;5.10;99.90
40291;DHT22;26000;48.304;13.626;2022-11-12T02:15:25;5.10;99.90
40291;DHT22;26000;48.304;13.626;2022-11-12T02:17:50;5.00;99.90
40291;DHT22;26000;48.304;13.626;2022-11-12T02:20:17;5.00;99.90
40291;DHT22;26000;48.304;13.626;2022-11-12T02:22:43;5.00;99.90
40291;DHT22;26000;48.304;13.626;2022-11-12T02:25:15;5.10;99.90
40291;DHT22;26000;48.304;13.626;2022-11-12T02:27:42;5.10;99.90
40291;DHT22;26000;48.304;13.626;2022-11-12T02:30:08;5.10;99.90
40291;DHT22;26000;48.304;13.626;2022-11-12T02:32:34;5.00;99.90
40291;DHT22;26000;48.304;13.626;2022-11-12T02:34:59;4.90;99.90
40291;DHT22;26000;48.304;13.626;2022-11-12T02:37:25;4.80;99.90
40291;DHT22;26000;48.304;13.626;2022-11-12T02:39:50;4.90;99.90
40291;DHT22;26000;48.304;13.626;2022-11-12T02:42:16;4.80;99.90
40291;DHT22;26000;48.304;13.626;2022-11-12T02:44:42;4.90;99.90
40291;DHT22;26000;48.304;13.626;2022-11-12T02:47:07;4.90;99.90
40291;DHT22;26000;48.304;13.626;2022-11-12T02:49:33;4.80;99.90
40291;DHT22;26000;48.304;13.626;2022-11-12T02:51:58;4.80;99.90
40291;DHT22;26000;48.304;13.626;2022-11-12T02:54:24;4.80;99.90
40291;DHT22;26000;48.304;13.626;2022-11-12T02:56:50;4.70;99.90
40291;DHT22;26000;48.304;13.626;2022-11-12T02:59:15;4.70;99.90
40291;DHT22;26000;48.304;13.626;2022-11-12T03:01:41;4.80;99.90
40291;DHT22;26000;48.304;13.626;2022-11-12T03:04:06;4.90;99.90
40291;DHT22;26000;48.304;13.626;2022-11-12T03:06:32;4.80;99.90
40291;DHT22;26000;48.304;13.626;2022-11-12T03:08:57;4.80;99.90
40291;DHT22;26000;48.304;13.626;2022-11-12T03:11:23;4.90;99.90
40291;DHT22;26000;48.304;13.626;2022-11-12T03:13:49;5.00;99.90
40291;DHT22;26000;48.304;13.626;2022-11-12T03:16:15;4.90;99.90
40291;DHT22;26000;48.304;13.626;2022-11-12T03:18:40;4.90;99.90
40291;DHT22;26000;48.304;13.626;2022-11-12T03:21:06;4.80;99.90
40291;DHT22;26000;48.304;13.626;2022-11-12T03:23:32;4.70;99.90
40291;DHT22;26000;48.304;13.626;2022-11-12T03:25:57;4.70;99.90
40291;DHT22;26000;48.304;13.626;2022-11-12T03:28:23;4.70;99.90
40291;DHT22;26000;48.304;13.626;2022-11-12T03:30:48;4.60;99.90
40291;DHT22;26000;48.304;13.626;2022-11-12T03:33:14;4.50;99.90
40291;DHT22;26000;48.304;13.626;2022-11-12T03:35:41;4.40;99.90
40291;DHT22;26000;48.304;13.626;2022-11-12T03:38:07;4.40;99.90
40291;DHT22;26000;48.304;13.626;2022-11-12T03:40:33;4.50;99.90
40291;DHT22;26000;48.304;13.626;2022-11-12T03:42:59;4.50;99.90
40291;DHT22;26000;48.304;13.626;2022-11-12T03:45:26;4.60;99.90
40291;DHT22;26000;48.304;13.626;2022-11-12T03:47:53;4.60;99.90
40291;DHT22;26000;48.304;13.626;2022-11-12T03:50:22;4.50;99.90
40291;DHT22;26000;48.304;13.626;2022-11-12T03:52:51;4.50;99.90
40291;DHT22;26000;48.304;13.626;2022-11-12T03:55:18;4.50;99.90
40291;DHT22;26000;48.304;13.626;2022-11-12T03:57:46;4.50;99.90
40291;DHT22;26000;48.304;13.626;2022-11-12T04:00:12;4.50;99.90
40291;DHT22;26000;48.304;13.626;2022-11-12T04:02:38;4.50;99.90
40291;DHT22;26000;48.304;13.626;2022-11-12T04:05:05;4.50;99.90
40291;DHT22;26000;48.304;13.626;2022-11-12T04:08:01;4.60;99.90
40291;DHT22;26000;48.304;13.626;2022-11-12T04:10:45;4.70;99.90
40291;DHT22;26000;48.304;13.626;2022-11-12T04:13:11;4.70;99.90
40291;DHT22;26000;48.304;13.626;2022-11-12T04:15:55;4.60;99.90
40291;DHT22;26000;48.304;13.626;2022-11-12T04:18:40;4.60;99.90
40291;DHT22;26000;48.304;13.626;2022-11-12T04:21:29;4.60;99.90
40291;DHT22;26000;48.304;13.626;2022-11-12T04:24:13;4.60;99.90
40291;DHT22;26000;48.304;13.626;2022-11-12T04:26:58;4.50;99.90
40291;DHT22;26000;48.304;13.626;2022-11-12T04:29:24;4.50;99.90
40291;DHT22;26000;48.304;13.626;2022-11-12T04:32:08;4.60;99.90
40291;DHT22;26000;48.304;13.626;2022-11-12T04:34:34;4.60;99.90
40291;DHT22;26000;48.304;13.626;2022-11-12T04:37:03;4.60;99.90
40291;DHT22;26000;48.304;13.626;2022-11-12T04:39:29;4.60;99.90
40291;DHT22;26000;48.304;13.626;2022-11-12T04:41:55;4.70;99.90
40291;DHT22;26000;48.304;13.626;2022-11-12T04:44:39;4.60;99.90
40291;DHT22;26000;48.304;13.626;2022-11-12T04:47:24;4.70;99.90
40291;DHT22;26000;48.304;13.626;2022-11-12T04:49:49;4.70;99.90
40291;DHT22;26000;48.304;13.626;2022-11-12T04:52:15;4.70;99.90
40291;DHT22;26000;48.304;13.626;2022-11-12T04:54:41;4.70;99.90
40291;DHT22;26000;48.304;13.626;2022-11-12T04:57:07;4.70;99.90
40291;DHT22;26000;48.304;13.626;2022-11-12T04:59:32;4.60;99.90
40291;DHT22;26000;48.304;13.626;2022-11-12T05:01:58;4.60;99.90
40291;DHT22;26000;48.304;13.626;2022-11-12T05:04:23;4.60;99.90
40291;DHT22;26000;48.304;13.626;2022-11-12T05:06:52;4.50;99.90
40291;DHT22;26000;48.304;13.626;2022-11-12T05:09:20;4.60;99.90
40291;DHT22;26000;48.304;13.626;2022-11-12T05:11:46;4.60;99.90
40291;DHT22;26000;48.304;13.626;2022-11-12T05:14:12;4.60;99.90
40291;DHT22;26000;48.304;13.626;2022-11-12T05:16:38;4.60;99.90
40291;DHT22;26000;48.304;13.626;2022-11-12T05:19:04;4.50;99.90
40291;DHT22;26000;48.304;13.626;2022-11-12T05:21:29;4.60;99.90
40291;DHT22;26000;48.304;13.626;2022-11-12T05:24:14;4.60;99.90
40291;DHT22;26000;48.304;13.626;2022-11-12T05:26:40;4.70;99.90
40291;DHT22;26000;48.304;13.626;2022-11-12T05:29:06;4.60;99.90
40291;DHT22;26000;48.304;13.626;2022-11-12T05:31:31;4.50;99.90
40291;DHT22;26000;48.304;13.626;2022-11-12T05:33:57;4.50;99.90
40291;DHT22;26000;48.304;13.626;2022-11-12T05:36:23;4.50;99.90
40291;DHT22;26000;48.304;13.626;2022-11-12T05:38:48;4.40;99.90
40291;DHT22;26000;48.304;13.626;2022-11-12T05:41:14;4.30;99.90
40291;DHT22;26000;48.304;13.626;2022-11-12T05:43:40;4.40;99.90
40291;DHT22;26000;48.304;13.626;2022-11-12T05:46:05;4.40;99.90
40291;DHT22;26000;48.304;13.626;2022-11-12T05:48:31;4.40;99.90
40291;DHT22;26000;48.304;13.626;2022-11-12T05:50:56;4.40;99.90
40291;DHT22;26000;48.304;13.626;2022-11-12T05:53:22;4.40;99.90
40291;DHT22;26000;48.304;13.626;2022-11-12T05:55:48;4.50;99.90
40291;DHT22;26000;48.304;13.626;2022-11-12T05:58:13;4.50;99.90
40291;DHT22;26000;48.304;13.626;2022-11-12T06:00:39;4.30;99.90
40291;DHT22;26000;48.304;13.626;2022-11-12T06:03:08;4.20;99.90
40291;DHT22;26000;48.304;13.626;2022-11-12T06:05:34;4.10;99.90
40291;DHT22;26000;48.304;13.626;2022-11-12T06:08:01;4.20;99.90
40291;DHT22;26000;48.304;13.626;2022-11-12T06:10:28;4.30;99.90
40291;DHT22;26000;48.304;13.626;2022-11-12T06:12:54;4.30;99.90
40291;DHT22;26000;48.304;13.626;2022-11-12T06:15:19;4.40;99.90
40291;DHT22;26000;48.304;13.626;2022-11-12T06:17:45;4.50;99.90
40291;DHT22;26000;48.304;13.626;2022-11-12T06:20:11;4.40;99.90
40291;DHT22;26000;48.304;13.626;2022-11-12T06:22:37;4.40;99.90
40291;DHT22;26000;48.304;13.626;2022-11-12T06:25:03;4.40;99.90
40291;DHT22;26000;48.304;13.626;2022-11-12T06:27:29;4.50;99.90
40291;DHT22;26000;48.304;13.626;2022-11-12T06:29:54;4.50;99.90
40291;DHT22;26000;48.304;13.626;2022-11-12T06:32:20;4.50;99.90
40291;DHT22;26000;48.304;13.626;2022-11-12T06:34:45;4.40;99.90
40291;DHT22;26000;48.304;13.626;2022-11-12T06:37:11;4.40;99.90
40291;DHT22;26000;48.304;13.626;2022-11-12T06:39:37;4.40;99.90
40291;DHT22;26000;48.304;13.626;2022-11-12T06:42:02;4.40;99.90
40291;DHT22;26000;48.304;13.626;2022-11-12T06:44:28;4.40;99.90
40291;DHT22;26000;48.304;13.626;2022-11-12T06:46:53;4.40;99.90
40291;DHT22;26000;48.304;13.626;2022-11-12T06:49:19;4.40;99.90
40291;DHT22;26000;48.304;13.626;2022-11-12T06:51:44;4.40;99.90
40291;DHT22;26000;48.304;13.626;2022-11-12T06:54:10;4.20;99.90
40291;DHT22;26000;48.304;13.626;2022-11-12T06:56:36;4.20;99.90
40291;DHT22;26000;48.304;13.626;2022-11-12T06:59:01;4.20;99.90
40291;DHT22;26000;48.304;13.626;2022-11-12T07:01:27;4.20;99.90
40291;DHT22;26000;48.304;13.626;2022-11-12T07:03:53;4.30;99.90
40291;DHT22;26000;48.304;13.626;2022-11-12T07:06:19;4.40;99.90
40291;DHT22;26000;48.304;13.626;2022-11-12T07:08:45;4.40;99.90
40291;DHT22;26000;48.304;13.626;2022-11-12T07:11:17;4.50;99.90
40291;DHT22;26000;48.304;13.626;2022-11-12T07:13:44;4.50;99.90
40291;DHT22;26000;48.304;13.626;2022-11-12T07:16:10;4.60;99.90
40291;DHT22;26000;48.304;13.626;2022-11-12T07:18:37;4.60;99.90
40291;DHT22;26000;48.304;13.626;2022-11-12T07:23:31;4.60;99.90
40291;DHT22;26000;48.304;13.626;2022-11-12T07:26:06;4.60;99.90
40291;DHT22;26000;48.304;13.626;2022-11-12T07:28:32;4.70;99.90
40291;DHT22;26000;48.304;13.626;2022-11-12T07:31:09;4.70;99.90
40291;DHT22;26000;48.304;13.626;2022-11-12T07:33:35;4.70;99.90
40291;DHT22;26000;48.304;13.626;2022-11-12T07:36:27;4.80;99.90
40291;DHT22;26000;48.304;13.626;2022-11-12T07:38:53;4.70;99.90
40291;DHT22;26000;48.304;13.626;2022-11-12T07:41:21;4.60;99.90
40291;DHT22;26000;48.304;13.626;2022-11-12T07:43:48;4.60;99.90
40291;DHT22;26000;48.304;13.626;2022-11-12T07:46:19;4.70;99.90
40291;DHT22;26000;48.304;13.626;2022-11-12T07:48:46;4.80;99.90
40291;DHT22;26000;48.304;13.626;2022-11-12T07:53:39;4.60;99.90
40291;DHT22;26000;48.304;13.626;2022-11-12T07:56:05;4.60;99.90
40291;DHT22;26000;48.304;13.626;2022-11-12T07:58:32;4.70;99.90
40291;DHT22;26000;48.304;13.626;2022-11-12T08:01:11;4.70;99.90
40291;DHT22;26000;48.304;13.626;2022-11-12T08:03:43;4.50;99.90
40291;DHT22;26000;48.304;13.626;2022-11-12T08:06:09;4.70;99.90
40291;DHT22;26000;48.304;13.626;2022-11-12T08:08:34;4.70;99.90
40291;DHT22;26000;48.304;13.626;2022-11-12T08:11:00;4.70;99.90
40291;DHT22;26000;48.304;13.626;2022-11-12T08:13:26;4.70;99.90
40291;DHT22;26000;48.304;13.626;2022-11-12T08:15:51;4.80;99.90
40291;DHT22;26000;48.304;13.626;2022-11-12T08:18:17;4.90;99.90
40291;DHT22;26000;48.304;13.626;2022-11-12T08:20:43;5.00;99.90
40291;DHT22;26000;48.304;13.626;2022-11-12T08:23:08;5.00;99.90
40291;DHT22;26000;48.304;13.626;2022-11-12T08:25:35;5.20;99.90
40291;DHT22;26000;48.304;13.626;2022-11-12T08:28:01;5.40;99.90
40291;DHT22;26000;48.304;13.626;2022-11-12T08:30:28;5.20;99.90
40291;DHT22;26000;48.304;13.626;2022-11-12T08:32:55;5.20;99.90
40291;DHT22;26000;48.304;13.626;2022-11-12T08:35:21;5.40;99.90
40291;DHT22;26000;48.304;13.626;2022-11-12T08:37:46;5.50;99.90
40291;DHT22;26000;48.304;13.626;2022-11-12T08:40:12;5.40;99.90
40291;DHT22;26000;48.304;13.626;2022-11-12T08:42:38;5.30;99.90
40291;DHT22;26000;48.304;13.626;2022-11-12T08:45:03;5.30;99.90
40291;DHT22;26000;48.304;13.626;2022-11-12T08:47:29;5.20;99.90
40291;DHT22;26000;48.304;13.626;2022-11-12T08:49:55;5.40;99.90
40291;DHT22;26000;48.304;13.626;2022-11-12T08:52:20;5.50;99.90
40291;DHT22;26000;48.304;13.626;2022-11-12T08:54:46;5.70;99.90
40291;DHT22;26000;48.304;13.626;2022-11-12T08:57:11;5.70;99.90
40291;DHT22;26000;48.304;13.626;2022-11-12T08:59:37;5.70;99.90
40291;DHT22;26000;48.304;13.626;2022-11-12T09:02:02;5.60;99.90
40291;DHT22;26000;48.304;13.626;2022-11-12T09:04:28;5.70;99.90
40291;DHT22;26000;48.304;13.626;2022-11-12T09:06:53;5.70;99.90
40291;DHT22;26000;48.304;13.626;2022-11-12T09:09:19;5.70;99.90
40291;DHT22;26000;48.304;13.626;2022-11-12T09:11:44;5.70;99.90
40291;DHT22;26000;48.304;13.626;2022-11-12T09:14:10;5.70;99.90
40291;DHT22;26000;48.304;13.626;2022-11-12T09:16:36;5.80;99.90
40291;DHT22;26000;48.304;13.626;2022-11-12T09:19:01;5.90;99.90
40291;DHT22;26000;48.304;13.626;2022-11-12T09:21:27;5.90;99.90
40291;DHT22;26000;48.304;13.626;2022-11-12T09:23:52;5.90;99.90
40291;DHT22;26000;48.304;13.626;2022-11-12T09:26:18;5.90;99.90
40291;DHT22;26000;48.304;13.626;2022-11-12T09:28:44;5.90;99.90
40291;DHT22;26000;48.304;13.626;2022-11-12T09:31:10;6.00;99.90
40291;DHT22;26000;48.304;13.626;2022-11-12T09:33:36;6.00;99.90
40291;DHT22;26000;48.304;13.626;2022-11-12T09:36:02;5.90;99.90
40291;DHT22;26000;48.304;13.626;2022-11-12T09:38:29;6.00;99.90
40291;DHT22;26000;48.304;13.626;2022-11-12T09:43:52;6.00;99.90
40291;DHT22;26000;48.304;13.626;2022-11-12T09:46:26;6.00;99.90
40291;DHT22;26000;48.304;13.626;2022-11-12T09:49:04;6.00;99.90
40291;DHT22;26000;48.304;13.626;2022-11-12T09:51:38;6.10;99.90
40291;DHT22;26000;48.304;13.626;2022-11-12T09:56:43;6.40;99.90
40291;DHT22;26000;48.304;13.626;2022-11-12T09:59:11;6.40;99.90
40291;DHT22;26000;48.304;13.626;2022-11-12T10:02:01;6.40;99.90
40291;DHT22;26000;48.304;13.626;2022-11-12T10:04:53;6.60;99.90
40291;DHT22;26000;48.304;13.626;2022-11-12T10:24:07;7.30;99.90
40291;DHT22;26000;48.304;13.626;2022-11-12T10:26:37;7.10;99.90
40291;DHT22;26000;48.304;13.626;2022-11-12T10:31:59;7.00;99.90
40291;DHT22;26000;48.304;13.626;2022-11-12T10:34:24;6.90;99.90
40291;DHT22;26000;48.304;13.626;2022-11-12T10:36:55;6.90;99.90
40291;DHT22;26000;48.304;13.626;2022-11-12T10:39:42;6.90;99.90
40291;DHT22;26000;48.304;13.626;2022-11-12T10:42:15;7.00;99.90
40291;DHT22;26000;48.304;13.626;2022-11-12T10:44:41;6.90;99.90
40291;DHT22;26000;48.304;13.626;2022-11-12T10:52:26;7.00;99.90
40291;DHT22;26000;48.304;13.626;2022-11-12T10:57:32;7.00;99.90
40291;DHT22;26000;48.304;13.626;2022-11-12T11:02:32;7.10;99.90
40291;DHT22;26000;48.304;13.626;2022-11-12T11:04:58;7.20;99.90
40291;DHT22;26000;48.304;13.626;2022-11-12T11:07:24;7.10;99.90
40291;DHT22;26000;48.304;13.626;2022-11-12T11:09:56;7.20;99.90
40291;DHT22;26000;48.304;13.626;2022-11-12T11:12:31;7.10;99.90
40291;DHT22;26000;48.304;13.626;2022-11-12T11:15:21;7.20;99.90
40291;DHT22;26000;48.304;13.626;2022-11-12T11:17:47;7.10;99.90
40291;DHT22;26000;48.304;13.626;2022-11-12T11:20:24;7.10;99.90
40291;DHT22;26000;48.304;13.626;2022-11-12T11:23:01;7.10;99.90
40291;DHT22;26000;48.304;13.626;2022-11-12T11:25:28;7.20;99.90
40291;DHT22;26000;48.304;13.626;2022-11-12T11:31:22;7.10;99.90
40291;DHT22;26000;48.304;13.626;2022-11-12T11:34:12;7.20;99.90
40291;DHT22;26000;48.304;13.626;2022-11-12T11:36:54;7.20;99.90
40291;DHT22;26000;48.304;13.626;2022-11-12T11:45:07;7.30;99.90
40291;DHT22;26000;48.304;13.626;2022-11-12T11:50:08;7.30;99.90
40291;DHT22;26000;48.304;13.626;2022-11-12T11:52:59;7.30;99.90
40291;DHT22;26000;48.304;13.626;2022-11-12T11:58:14;7.50;99.90
40291;DHT22;26000;48.304;13.626;2022-11-12T12:09:21;7.60;99.90
40291;DHT22;26000;48.304;13.626;2022-11-12T12:11:52;7.70;99.90
40291;DHT22;26000;48.304;13.626;2022-11-12T12:17:40;7.60;99.90
40291;DHT22;26000;48.304;13.626;2022-11-12T12:20:21;7.70;99.90
40291;DHT22;26000;48.304;13.626;2022-11-12T12:25:38;7.80;99.90
40291;DHT22;26000;48.304;13.626;2022-11-12T12:28:26;7.70;99.90
40291;DHT22;26000;48.304;13.626;2022-11-12T12:30:58;7.70;99.90
40291;DHT22;26000;48.304;13.626;2022-11-12T12:33:38;7.60;99.90
40291;DHT22;26000;48.304;13.626;2022-11-12T12:36:11;7.80;99.90
40291;DHT22;26000;48.304;13.626;2022-11-12T12:38:54;7.80;99.90
40291;DHT22;26000;48.304;13.626;2022-11-12T12:41:55;7.80;99.90
40291;DHT22;26000;48.304;13.626;2022-11-12T12:44:21;7.80;99.90
40291;DHT22;26000;48.304;13.626;2022-11-12T12:47:08;7.80;99.90
40291;DHT22;26000;48.304;13.626;2022-11-12T12:49:36;7.90;99.90
40291;DHT22;26000;48.304;13.626;2022-11-12T12:52:03;7.90;99.90
40291;DHT22;26000;48.304;13.626;2022-11-12T12:57:02;7.90;99.90
40291;DHT22;26000;48.304;13.626;2022-11-12T12:59:28;7.90;99.90
40291;DHT22;26000;48.304;13.626;2022-11-12T13:02:01;7.90;99.90
40291;DHT22;26000;48.304;13.626;2022-11-12T13:04:53;7.80;99.90
40291;DHT22;26000;48.304;13.626;2022-11-12T13:15:45;7.90;99.90
40291;DHT22;26000;48.304;13.626;2022-11-12T13:21:10;7.80;99.90
40291;DHT22;26000;48.304;13.626;2022-11-12T13:34:50;8.00;99.90
40291;DHT22;26000;48.304;13.626;2022-11-12T13:37:20;7.80;99.90
40291;DHT22;26000;48.304;13.626;2022-11-12T13:39:47;7.80;99.90
40291;DHT22;26000;48.304;13.626;2022-11-12T13:42:15;7.80;99.90
40291;DHT22;26000;48.304;13.626;2022-11-12T13:45:00;7.90;99.90
40291;DHT22;26000;48.304;13.626;2022-11-12T13:47:26;7.90;99.90
40291;DHT22;26000;48.304;13.626;2022-11-12T13:49:55;7.80;99.90
40291;DHT22;26000;48.304;13.626;2022-11-12T13:52:23;7.90;99.90
40291;DHT22;26000;48.304;13.626;2022-11-12T13:55:05;7.90;99.90
40291;DHT22;26000;48.304;13.626;2022-11-12T13:57:31;7.90;99.90
40291;DHT22;26000;48.304;13.626;2022-11-12T14:00:08;7.90;99.90
40291;DHT22;26000;48.304;13.626;2022-11-12T14:02:36;7.80;99.90
40291;DHT22;26000;48.304;13.626;2022-11-12T14:05:14;7.80;99.90
40291;DHT22;26000;48.304;13.626;2022-11-12T14:10:45;7.70;99.90
40291;DHT22;26000;48.304;13.626;2022-11-12T14:16:36;7.70;99.90
40291;DHT22;26000;48.304;13.626;2022-11-12T14:19:25;7.70;99.90
40291;DHT22;26000;48.304;13.626;2022-11-12T14:24:33;7.70;99.90
40291;DHT22;26000;48.304;13.626;2022-11-12T14:26:59;7.70;99.90
40291;DHT22;26000;48.304;13.626;2022-11-12T14:29:24;7.60;99.90
40291;DHT22;26000;48.304;13.626;2022-11-12T14:32:00;7.70;99.90
40291;DHT22;26000;48.304;13.626;2022-11-12T14:34:28;7.70;99.90
40291;DHT22;26000;48.304;13.626;2022-11-12T14:36:54;7.70;99.90
40291;DHT22;26000;48.304;13.626;2022-11-12T14:39:23;7.70;99.90
40291;DHT22;26000;48.304;13.626;2022-11-12T14:41:50;7.60;99.90
40291;DHT22;26000;48.304;13.626;2022-11-12T14:44:23;7.60;99.90
40291;DHT22;26000;48.304;13.626;2022-11-12T14:46:53;7.60;99.90
40291;DHT22;26000;48.304;13.626;2022-11-12T14:49:39;7.40;99.90
40291;DHT22;26000;48.304;13.626;2022-11-12T14:52:27;7.40;99.90
40291;DHT22;26000;48.304;13.626;2022-11-12T14:54:56;7.40;99.90
40291;DHT22;26000;48.304;13.626;2022-11-12T14:57:28;7.40;99.90
40291;DHT22;26000;48.304;13.626;2022-11-12T14:59:55;7.40;99.90
40291;DHT22;26000;48.304;13.626;2022-11-12T15:02:25;7.40;99.90
40291;DHT22;26000;48.304;13.626;2022-11-12T15:05:02;7.30;99.90
40291;DHT22;26000;48.304;13.626;2022-11-12T15:07:31;7.30;99.90
40291;DHT22;26000;48.304;13.626;2022-11-12T15:09:57;7.20;99.90
40291;DHT22;26000;48.304;13.626;2022-11-12T15:12:25;7.20;99.90
40291;DHT22;26000;48.304;13.626;2022-11-12T15:15:02;7.20;99.90
40291;DHT22;26000;48.304;13.626;2022-11-12T15:17:32;7.20;99.90
40291;DHT22;26000;48.304;13.626;2022-11-12T15:20:15;7.20;99.90
40291;DHT22;26000;48.304;13.626;2022-11-12T15:22:48;7.20;99.90
40291;DHT22;26000;48.304;13.626;2022-11-12T15:25:19;7.30;99.90
40291;DHT22;26000;48.304;13.626;2022-11-12T15:27:46;7.20;99.90
40291;DHT22;26000;48.304;13.626;2022-11-12T15:35:39;7.10;99.90
40291;DHT22;26000;48.304;13.626;2022-11-12T15:38:33;7.20;99.90
40291;DHT22;26000;48.304;13.626;2022-11-12T15:41:03;7.20;99.90
40291;DHT22;26000;48.304;13.626;2022-11-12T15:43:34;7.20;99.90
40291;DHT22;26000;48.304;13.626;2022-11-12T15:46:01;7.10;99.90
40291;DHT22;26000;48.304;13.626;2022-11-12T15:48:27;7.10;99.90
40291;DHT22;26000;48.304;13.626;2022-11-12T15:50:53;7.10;99.90
40291;DHT22;26000;48.304;13.626;2022-11-12T15:53:19;7.10;99.90
40291;DHT22;26000;48.304;13.626;2022-11-12T15:55:45;7.10;99.90
40291;DHT22;26000;48.304;13.626;2022-11-12T15:58:17;7.10;99.90
40291;DHT22;26000;48.304;13.626;2022-11-12T16:00:44;7.10;99.90
40291;DHT22;26000;48.304;13.626;2022-11-12T16:05:40;7.10;99.90
40291;DHT22;26000;48.304;13.626;2022-11-12T16:08:06;7.10;99.90
40291;DHT22;26000;48.304;13.626;2022-11-12T16:10:32;7.00;99.90
40291;DHT22;26000;48.304;13.626;2022-11-12T16:12:59;7.00;99.90
40291;DHT22;26000;48.304;13.626;2022-11-12T16:15:25;7.00;99.90
40291;DHT22;26000;48.304;13.626;2022-11-12T16:17:52;7.00;99.90
40291;DHT22;26000;48.304;13.626;2022-11-12T16:20:24;7.10;99.90
40291;DHT22;26000;48.304;13.626;2022-11-12T16:22:50;7.10;99.90
40291;DHT22;26000;48.304;13.626;2022-11-12T16:25:17;7.10;99.90
40291;DHT22;26000;48.304;13.626;2022-11-12T16:27:43;7.00;99.90
40291;DHT22;26000;48.304;13.626;2022-11-12T16:30:20;7.00;99.90
40291;DHT22;26000;48.304;13.626;2022-11-12T16:32:47;7.00;99.90
40291;DHT22;26000;48.304;13.626;2022-11-12T16:35:13;7.00;99.90
40291;DHT22;26000;48.304;13.626;2022-11-12T16:37:40;7.00;99.90
40291;DHT22;26000;48.304;13.626;2022-11-12T16:40:13;6.90;99.90
40291;DHT22;26000;48.304;13.626;2022-11-12T16:42:39;6.90;99.90
40291;DHT22;26000;48.304;13.626;2022-11-12T16:45:13;6.80;99.90
40291;DHT22;26000;48.304;13.626;2022-11-12T16:47:53;6.80;99.90
40291;DHT22;26000;48.304;13.626;2022-11-12T16:50:25;6.90;99.90
40291;DHT22;26000;48.304;13.626;2022-11-12T16:52:51;6.90;99.90
40291;DHT22;26000;48.304;13.626;2022-11-12T16:55:17;6.90;99.90
40291;DHT22;26000;48.304;13.626;2022-11-12T16:57:44;6.90;99.90
40291;DHT22;26000;48.304;13.626;2022-11-12T17:00:11;6.90;99.90
40291;DHT22;26000;48.304;13.626;2022-11-12T17:02:38;6.90;99.90
40291;DHT22;26000;48.304;13.626;2022-11-12T17:05:05;6.80;99.90
40291;DHT22;26000;48.304;13.626;2022-11-12T17:07:32;6.70;99.90
40291;DHT22;26000;48.304;13.626;2022-11-12T17:09:57;6.80;99.90
40291;DHT22;26000;48.304;13.626;2022-11-12T17:12:23;6.60;99.90
40291;DHT22;26000;48.304;13.626;2022-11-12T17:14:49;6.60;99.90
40291;DHT22;26000;48.304;13.626;2022-11-12T17:17:14;6.50;99.90
40291;DHT22;26000;48.304;13.626;2022-11-12T17:19:40;6.30;99.90
40291;DHT22;26000;48.304;13.626;2022-11-12T17:22:06;6.30;99.90
40291;DHT22;26000;48.304;13.626;2022-11-12T17:24:32;6.40;99.90
40291;DHT22;26000;48.304;13.626;2022-11-12T17:26:57;6.30;99.90
40291;DHT22;26000;48.304;13.626;2022-11-12T17:29:24;6.40;99.90
40291;DHT22;26000;48.304;13.626;2022-11-12T17:31:50;6.40;99.90